createdAt,value
2023-04-18T00:01:27.591Z,71.33
2023-04-18T00:03:54.156Z,72.12
2023-04-18T00:06:22.125Z,72.20
2023-04-18T00:08:49.119Z,72.31
2023-04-18T00:11:15.679Z,73.00
2023-04-18T00:13:42.243Z,73.04
2023-04-18T00:16:08.888Z,73.21
2023-04-18T00:18:36.833Z,73.66
2023-04-18T00:21:04.324Z,73.89
2023-04-18T00:23:31.249Z,74.32
2023-04-18T00:25:57.949Z,74.33
2023-04-18T00:28:24.727Z,73.71
2023-04-18T00:30:51.504Z,74.41
2023-04-18T00:33:18.365Z,74.88
2023-04-18T00:35:45.231Z,75.35
2023-04-18T00:38:11.936Z,75.14
2023-04-18T00:40:38.832Z,75.01
2023-04-18T00:43:08.003Z,74.68
2023-04-18T00:45:35.142Z,75.23
2023-04-18T00:48:02.147Z,74.90
2023-04-18T00:50:28.941Z,76.61
2023-04-18T00:52:56.751Z,76.34
2023-04-18T00:55:24.200Z,75.86
2023-04-18T00:57:51.686Z,76.92
2023-04-18T01:00:18.646Z,77.12
2023-04-18T01:02:49.662Z,76.76
2023-04-18T01:05:18.163Z,77.52
2023-04-18T01:07:45.417Z,77.13
2023-04-18T01:10:12.242Z,77.46
2023-04-18T01:12:40.729Z,77.86
2023-04-18T01:15:07.920Z,77.97
2023-04-18T01:17:35.450Z,77.64
2023-04-18T01:20:05.417Z,77.33
2023-04-18T01:22:33.001Z,78.22
2023-04-18T01:24:59.700Z,77.97
2023-04-18T01:27:26.439Z,78.10
2023-04-18T01:29:53.499Z,78.10
2023-04-18T01:32:20.471Z,77.62
2023-04-18T01:34:47.557Z,77.82
2023-04-18T01:37:14.376Z,78.60
2023-04-18T01:39:41.060Z,78.83
2023-04-18T01:42:07.762Z,78.66
2023-04-18T01:44:34.507Z,79.38
2023-04-18T01:47:01.392Z,78.55
2023-04-18T01:49:28.158Z,78.97
2023-04-18T01:51:54.856Z,79.02
2023-04-18T01:54:21.787Z,78.52
2023-04-18T01:56:48.518Z,79.78
2023-04-18T01:59:15.289Z,79.74
2023-04-18T02:01:42.691Z,79.40
2023-04-18T02:04:09.469Z,78.86
2023-04-18T02:06:36.453Z,78.88
2023-04-18T02:09:03.124Z,79.17
2023-04-18T02:11:29.989Z,79.24
2023-04-18T02:13:56.627Z,79.69
2023-04-18T02:16:23.374Z,79.28
2023-04-18T02:18:52.727Z,79.79
2023-04-18T02:21:19.421Z,80.19
2023-04-18T02:23:46.125Z,79.96
2023-04-18T02:26:12.801Z,80.47
2023-04-18T02:28:39.630Z,80.60
2023-04-18T02:31:07.223Z,80.19
2023-04-18T02:33:33.929Z,80.14
2023-04-18T02:36:01.627Z,80.49
2023-04-18T02:38:28.359Z,80.14
2023-04-18T02:40:55.925Z,80.43
2023-04-18T02:43:22.611Z,80.81
2023-04-18T02:45:49.417Z,80.37
2023-04-18T02:48:16.125Z,80.52
2023-04-18T02:50:42.827Z,80.14
2023-04-18T02:53:09.536Z,80.40
2023-04-18T02:55:37.093Z,80.34
2023-04-18T02:58:03.780Z,80.30
2023-04-18T03:00:30.518Z,80.18
2023-04-18T03:02:57.313Z,79.95
2023-04-18T03:05:24.060Z,79.96
2023-04-18T03:07:50.787Z,80.20
2023-04-18T03:10:18.107Z,80.47
2023-04-18T03:12:44.806Z,80.35
2023-04-18T03:15:11.737Z,80.44
2023-04-18T03:17:39.191Z,80.24
2023-04-18T03:20:06.560Z,79.93
2023-04-18T03:22:33.254Z,79.82
2023-04-18T03:25:00.666Z,79.82
2023-04-18T03:27:27.374Z,80.01
2023-04-18T03:29:54.088Z,80.10
2023-04-18T03:32:20.947Z,80.49
2023-04-18T03:34:48.451Z,80.40
2023-04-18T03:37:15.191Z,80.41
2023-04-18T03:39:44.421Z,80.77
2023-04-18T03:42:11.138Z,80.67
2023-04-18T03:44:37.809Z,81.46
2023-04-18T03:47:05.304Z,81.72
2023-04-18T03:49:32.155Z,82.23
2023-04-18T03:51:58.881Z,82.39
2023-04-18T03:54:25.600Z,82.73
2023-04-18T03:56:52.594Z,82.78
2023-04-18T03:59:19.341Z,83.05
2023-04-18T04:01:46.170Z,83.75
2023-04-18T04:04:15.248Z,83.63
2023-04-18T04:06:42.340Z,83.96
2023-04-18T04:09:09.088Z,83.86
2023-04-18T04:11:36.011Z,84.19
2023-04-18T04:14:02.660Z,84.53
2023-04-18T04:16:29.975Z,84.04
2023-04-18T04:18:56.709Z,84.54
2023-04-18T04:21:23.475Z,84.70
2023-04-18T04:23:50.438Z,84.76
2023-04-18T04:26:17.113Z,84.83
2023-04-18T04:28:46.363Z,84.79
2023-04-18T04:31:13.067Z,85.20
2023-04-18T04:33:41.248Z,84.99
2023-04-18T04:36:08.894Z,84.78
2023-04-18T04:38:38.369Z,85.36
2023-04-18T04:41:09.501Z,84.67
2023-04-18T04:43:36.381Z,84.43
2023-04-18T04:46:04.132Z,84.38
2023-04-18T04:48:31.308Z,85.05
2023-04-18T04:50:59.666Z,84.79
2023-04-18T04:53:33.203Z,84.88
2023-04-18T04:55:59.893Z,84.60
2023-04-18T04:58:27.022Z,85.15
2023-04-18T05:00:54.014Z,85.11
2023-04-18T05:03:21.100Z,85.06
2023-04-18T05:05:48.273Z,84.96
2023-04-18T05:08:15.012Z,84.93
2023-04-18T05:10:43.114Z,84.89
2023-04-18T05:13:09.885Z,85.08
2023-04-18T05:15:36.607Z,84.84
2023-04-18T05:18:03.436Z,84.55
2023-04-18T05:20:30.233Z,84.01
2023-04-18T05:22:56.974Z,83.97
2023-04-18T05:25:23.926Z,84.02
2023-04-18T05:27:50.966Z,83.43
2023-04-18T05:30:17.869Z,83.70
2023-04-18T05:32:44.592Z,83.28
2023-04-18T05:35:11.358Z,82.49
2023-04-18T05:37:38.032Z,82.40
2023-04-18T05:40:05.781Z,81.75
2023-04-18T05:42:32.693Z,81.49
2023-04-18T05:44:59.471Z,81.09
2023-04-18T05:47:28.401Z,80.40
2023-04-18T05:49:55.610Z,79.72
2023-04-18T05:52:22.590Z,80.17
2023-04-18T05:54:49.308Z,79.96
2023-04-18T05:57:16.026Z,79.15
2023-04-18T05:59:42.949Z,78.32
2023-04-18T06:02:13.335Z,79.03
2023-04-18T06:04:44.948Z,78.64
2023-04-18T06:07:12.011Z,77.74
2023-04-18T06:09:38.810Z,78.29
2023-04-18T06:12:05.742Z,77.85
2023-04-18T06:14:32.442Z,77.21
2023-04-18T06:16:59.316Z,77.23
2023-04-18T06:19:26.075Z,77.25
2023-04-18T06:21:53.089Z,77.25
2023-04-18T06:24:19.792Z,77.47
2023-04-18T06:26:46.483Z,76.51
2023-04-18T06:29:13.175Z,76.21
2023-04-18T06:32:01.212Z,75.92
2023-04-18T06:41:28.463Z,73.42
2023-04-18T06:44:03.389Z,74.00
2023-04-18T06:46:31.418Z,72.05
2023-04-18T06:48:58.270Z,71.21
2023-04-18T06:51:24.841Z,71.76
2023-04-18T06:53:53.625Z,71.70
2023-04-18T06:56:20.567Z,70.35
2023-04-18T06:58:47.749Z,69.84
2023-04-18T07:01:14.376Z,69.49
2023-04-18T07:03:41.002Z,68.06
2023-04-18T07:06:08.830Z,69.07
2023-04-18T07:08:35.880Z,68.79
2023-04-18T07:11:02.450Z,69.25
2023-04-18T07:13:29.003Z,68.92
2023-04-18T07:15:55.588Z,65.49
2023-04-18T07:18:34.224Z,64.66
2023-04-18T07:21:03.659Z,65.71
2023-04-18T07:23:30.142Z,64.41
2023-04-18T07:25:58.574Z,64.83
2023-04-18T07:28:25.290Z,65.65
2023-04-18T07:30:51.861Z,64.89
2023-04-18T07:33:18.355Z,65.57
2023-04-18T07:35:46.555Z,64.57
2023-04-18T07:38:13.144Z,64.53
2023-04-18T07:40:39.650Z,64.40
2023-04-18T07:43:06.120Z,64.55
2023-04-18T07:45:35.627Z,63.95
2023-04-18T07:48:02.442Z,63.31
2023-04-18T07:50:28.925Z,63.63
2023-04-18T07:52:55.608Z,62.44
2023-04-18T07:55:22.077Z,61.25
2023-04-18T07:57:50.389Z,61.47
2023-04-18T08:00:18.110Z,61.24
2023-04-18T08:02:44.772Z,61.79
2023-04-18T08:05:11.985Z,62.15
2023-04-18T08:07:38.569Z,61.04
2023-04-18T08:10:05.524Z,60.92
2023-04-18T08:12:32.058Z,60.20
2023-04-18T08:14:58.573Z,59.63
2023-04-18T08:17:25.171Z,60.64
2023-04-18T08:19:51.734Z,60.63
2023-04-18T08:22:18.239Z,61.38
2023-04-18T08:25:01.095Z,62.17
2023-04-18T08:27:31.336Z,61.05
2023-04-18T08:29:58.118Z,59.23
2023-04-18T08:32:24.713Z,60.22
2023-04-18T08:34:51.443Z,59.17
2023-04-18T08:37:18.251Z,60.24
2023-04-18T08:39:45.113Z,59.62
2023-04-18T08:42:16.245Z,59.90
2023-04-18T08:44:43.041Z,61.00
2023-04-18T08:47:10.675Z,59.62
2023-04-18T08:49:38.106Z,59.56
2023-04-18T08:52:11.116Z,58.56
2023-04-18T08:54:41.921Z,58.34
2023-04-18T08:57:12.349Z,58.56
2023-04-18T08:59:40.008Z,57.70
2023-04-18T09:02:08.864Z,57.57
2023-04-18T09:04:41.022Z,54.40
2023-04-18T09:07:10.601Z,56.20
2023-04-18T09:09:45.408Z,57.40
2023-04-18T09:12:14.586Z,57.89
2023-04-18T09:14:48.458Z,58.60
2023-04-18T09:17:21.459Z,59.11
2023-04-18T09:19:48.949Z,59.27
2023-04-18T09:22:17.860Z,60.10
2023-04-18T09:24:53.132Z,59.13
2023-04-18T09:27:22.280Z,59.94
2023-04-18T09:29:54.762Z,60.57
2023-04-18T09:32:29.630Z,60.25
2023-04-18T09:35:03.981Z,61.03
2023-04-18T09:37:31.510Z,61.28
2023-04-18T09:39:58.205Z,61.14
2023-04-18T09:42:27.492Z,61.80
2023-04-18T09:44:59.799Z,61.42
2023-04-18T09:47:28.005Z,62.46
2023-04-18T09:49:55.446Z,60.41
2023-04-18T09:52:25.067Z,60.74
2023-04-18T09:55:01.565Z,59.92
2023-04-18T09:57:30.879Z,60.19
2023-04-18T10:00:14.113Z,60.07
2023-04-18T10:02:56.643Z,60.04
2023-04-18T10:05:30.733Z,59.59
2023-04-18T10:07:57.882Z,60.34
2023-04-18T10:10:24.786Z,60.50
2023-04-18T10:12:54.784Z,59.81
2023-04-18T10:15:24.081Z,60.46
2023-04-18T10:18:04.616Z,60.24
2023-04-18T10:20:34.967Z,58.95
2023-04-18T10:23:36.988Z,59.81
2023-04-18T10:26:05.459Z,60.28
2023-04-18T10:28:58.221Z,61.30
2023-04-18T10:31:27.173Z,60.39
2023-04-18T10:34:04.548Z,59.74
2023-04-18T10:36:32.939Z,59.73
2023-04-18T10:39:21.091Z,58.98
2023-04-18T10:41:50.634Z,59.85
2023-04-18T10:44:22.867Z,59.73
2023-04-18T10:46:53.126Z,59.65
2023-04-18T10:49:23.377Z,60.40
2023-04-18T10:51:54.245Z,60.33
2023-04-18T10:54:46.455Z,60.02
2023-04-18T10:57:13.848Z,59.51
2023-04-18T10:59:48.019Z,58.51
2023-04-18T11:02:25.392Z,58.94
2023-04-18T11:04:57.030Z,58.48
2023-04-18T11:07:35.765Z,59.25
2023-04-18T11:10:03.651Z,58.60
2023-04-18T11:12:36.251Z,59.35
2023-04-18T11:15:09.525Z,58.49
2023-04-18T11:17:36.278Z,57.98
2023-04-18T11:20:09.123Z,58.22
2023-04-18T11:22:47.235Z,59.27
2023-04-18T11:25:15.311Z,59.36
2023-04-18T11:27:47.304Z,59.94
2023-04-18T11:30:15.131Z,59.64
2023-04-18T11:32:41.996Z,59.73
2023-04-18T11:35:10.482Z,59.63
2023-04-18T11:37:38.290Z,59.32
2023-04-18T11:40:08.777Z,59.22
2023-04-18T11:42:37.340Z,59.09
2023-04-18T11:45:08.563Z,59.17
2023-04-18T11:47:35.337Z,59.25
2023-04-18T11:50:07.170Z,59.76
2023-04-18T11:52:35.198Z,59.40
2023-04-18T11:55:17.292Z,59.53
2023-04-18T11:58:00.316Z,59.01
2023-04-18T12:00:34.939Z,59.98
2023-04-18T12:03:07.779Z,60.63
2023-04-18T12:05:36.813Z,60.10
2023-04-18T12:08:13.181Z,59.54
2023-04-18T12:10:51.365Z,60.47
2023-04-18T12:13:19.303Z,58.63
2023-04-18T12:15:46.741Z,58.63
2023-04-18T12:18:15.348Z,58.74
2023-04-18T12:20:50.372Z,59.01
2023-04-18T12:23:34.276Z,58.58
2023-04-18T12:26:02.593Z,59.32
2023-04-18T12:28:29.715Z,58.76
2023-04-18T12:30:56.452Z,58.72
2023-04-18T12:33:23.425Z,58.28
2023-04-18T12:35:52.178Z,59.02
2023-04-18T12:38:23.210Z,58.22
2023-04-18T12:40:51.386Z,58.19
2023-04-18T12:43:18.574Z,57.71
2023-04-18T12:45:46.512Z,57.56
2023-04-18T12:48:23.827Z,58.00
2023-04-18T12:50:50.774Z,58.35
2023-04-18T12:53:17.559Z,58.37
2023-04-18T12:55:44.306Z,58.58
2023-04-18T12:58:11.009Z,58.84
2023-04-18T13:00:39.686Z,58.25
2023-04-18T13:03:06.700Z,59.39
2023-04-18T13:05:34.282Z,59.11
2023-04-18T13:10:31.369Z,58.95
2023-04-18T13:12:58.273Z,59.10
2023-04-18T13:15:26.022Z,60.12
2023-04-18T13:17:52.805Z,59.90
2023-04-18T13:20:19.554Z,60.08
2023-04-18T13:22:46.313Z,59.54
2023-04-18T13:25:13.253Z,59.29
2023-04-18T13:27:42.005Z,59.23
2023-04-18T13:30:10.997Z,59.19
2023-04-18T13:32:39.100Z,59.97
2023-04-18T13:35:09.095Z,59.80
2023-04-18T13:37:36.614Z,59.76
2023-04-18T13:40:07.734Z,59.77
2023-04-18T13:42:35.979Z,60.05
2023-04-18T13:45:03.212Z,60.28
2023-04-18T13:47:30.300Z,60.82
2023-04-18T13:49:57.665Z,60.54
2023-04-18T13:52:24.877Z,60.70
2023-04-18T13:54:51.540Z,60.47
2023-04-18T13:57:18.355Z,59.26
2023-04-18T13:59:45.079Z,59.89
2023-04-18T14:02:12.276Z,60.24
2023-04-18T14:04:39.159Z,59.81
2023-04-18T14:07:09.000Z,59.69
2023-04-18T14:09:35.714Z,59.97
2023-04-18T14:12:02.505Z,60.62
2023-04-18T14:14:29.504Z,60.36
2023-04-18T14:16:56.221Z,59.79
2023-04-18T14:19:23.002Z,59.06
2023-04-18T14:21:49.717Z,59.23
2023-04-18T14:24:16.494Z,60.07
2023-04-18T14:26:43.900Z,59.88
2023-04-18T14:29:11.006Z,60.38
2023-04-18T14:31:37.830Z,60.49
2023-04-18T14:34:05.547Z,61.04
2023-04-18T14:36:32.606Z,60.25
2023-04-18T14:38:59.340Z,60.71
2023-04-18T14:41:26.126Z,61.29
2023-04-18T14:43:52.989Z,61.45
2023-04-18T14:46:21.051Z,61.76
2023-04-18T14:48:47.871Z,62.23
2023-04-18T14:51:16.384Z,62.38
2023-04-18T14:53:43.411Z,62.57
2023-04-18T14:56:10.156Z,63.46
2023-04-18T14:58:36.832Z,63.49
2023-04-18T15:01:04.274Z,63.57
2023-04-18T15:03:31.347Z,63.77
2023-04-18T15:05:58.285Z,63.67
2023-04-18T15:08:25.245Z,63.69
2023-04-18T15:10:54.659Z,64.01
2023-04-18T15:13:21.324Z,63.80
2023-04-18T15:15:54.987Z,64.06
2023-04-18T15:18:22.035Z,64.51
2023-04-18T15:20:48.824Z,63.52
2023-04-18T15:23:16.067Z,63.42
2023-04-18T15:25:44.761Z,64.30
2023-04-18T15:28:14.325Z,64.32
2023-04-18T15:30:41.111Z,63.91
2023-04-18T15:33:08.310Z,64.03
2023-04-18T15:35:35.785Z,64.14
2023-04-18T15:38:02.994Z,63.69
2023-04-18T15:40:30.192Z,63.34
2023-04-18T15:42:59.283Z,63.70
2023-04-18T15:45:25.948Z,63.26
2023-04-18T15:47:52.790Z,63.18
2023-04-18T15:50:19.742Z,63.50
2023-04-18T15:52:46.610Z,63.32
2023-04-18T15:55:13.709Z,64.05
2023-04-18T15:57:41.670Z,63.63
2023-04-18T16:00:20.878Z,63.33
2023-04-18T16:02:49.532Z,63.45
2023-04-18T16:05:17.384Z,63.34
2023-04-18T16:07:44.326Z,64.01
2023-04-18T16:10:12.578Z,63.89
2023-04-18T16:12:39.751Z,63.37
2023-04-18T16:15:10.504Z,63.75
2023-04-18T16:17:38.385Z,63.42
2023-04-18T16:20:09.012Z,63.77
2023-04-18T16:22:36.565Z,63.49
2023-04-18T16:25:04.392Z,63.52
2023-04-18T16:27:32.921Z,63.25
2023-04-18T16:29:59.710Z,63.48
2023-04-18T16:32:26.846Z,63.58
2023-04-18T16:34:53.588Z,63.33
2023-04-18T16:37:20.259Z,62.70
2023-04-18T16:39:48.363Z,62.99
2023-04-18T16:42:16.442Z,62.80
2023-04-18T16:44:45.069Z,62.78
2023-04-18T16:47:11.778Z,62.89
2023-04-18T16:49:38.538Z,62.66
2023-04-18T16:52:05.310Z,63.04
2023-04-18T16:54:32.058Z,63.51
2023-04-18T16:56:58.781Z,63.61
2023-04-18T16:59:25.965Z,64.00
2023-04-18T17:01:52.788Z,63.69
2023-04-18T17:04:19.405Z,64.12
2023-04-18T17:06:46.621Z,64.12
2023-04-18T17:09:14.552Z,64.11
2023-04-18T17:11:41.847Z,64.45
2023-04-18T17:14:09.349Z,64.16
2023-04-18T17:16:38.450Z,64.73
2023-04-18T17:19:05.694Z,64.94
2023-04-18T17:21:32.966Z,65.23
2023-04-18T17:24:03.364Z,65.06
2023-04-18T17:26:30.786Z,65.28
2023-04-18T17:28:57.761Z,65.36
2023-04-18T17:31:24.488Z,65.50
2023-04-18T17:33:51.257Z,65.46
2023-04-18T17:36:17.920Z,65.43
2023-04-18T17:38:48.783Z,65.51
2023-04-18T17:41:20.167Z,65.99
2023-04-18T17:43:47.685Z,66.24
2023-04-18T17:46:14.771Z,66.44
2023-04-18T17:48:41.571Z,66.25
2023-04-18T17:51:08.278Z,66.57
2023-04-18T17:53:34.975Z,66.57
2023-04-18T17:56:03.560Z,66.53
2023-04-18T17:58:30.414Z,66.65
2023-04-18T18:00:57.289Z,67.15
2023-04-18T18:03:24.234Z,67.60
2023-04-18T18:05:51.774Z,67.26
2023-04-18T18:08:18.557Z,67.80
2023-04-18T18:10:46.985Z,67.76
2023-04-18T18:13:13.702Z,67.40
2023-04-18T18:15:40.540Z,68.10
2023-04-18T18:18:07.379Z,68.62
2023-04-18T18:20:34.098Z,68.49
2023-04-18T18:23:01.569Z,68.73
2023-04-18T18:25:28.635Z,68.53
2023-04-18T18:27:55.386Z,68.79
2023-04-18T18:30:22.143Z,69.05
2023-04-18T18:32:49.441Z,69.41
2023-04-18T18:35:16.202Z,69.51
2023-04-18T18:37:42.877Z,69.49
2023-04-18T18:40:10.028Z,69.82
2023-04-18T18:42:36.756Z,70.11
2023-04-18T18:45:03.947Z,70.18
2023-04-18T18:47:30.909Z,70.15
2023-04-18T18:49:57.672Z,69.87
2023-04-18T18:52:24.737Z,70.09
2023-04-18T18:54:51.416Z,70.81
2023-04-18T18:57:18.217Z,70.60
2023-04-18T18:59:45.016Z,70.76
2023-04-18T19:02:11.928Z,71.35
2023-04-18T19:04:38.811Z,71.10
2023-04-18T19:07:06.128Z,71.07
2023-04-18T19:09:33.276Z,71.71
2023-04-18T19:12:00.906Z,71.45
2023-04-18T19:14:27.586Z,72.08
2023-04-18T19:16:55.783Z,71.83
2023-04-18T19:19:22.483Z,72.08
2023-04-18T19:21:49.963Z,72.15
2023-04-18T19:24:17.676Z,72.28
2023-04-18T19:26:44.360Z,72.18
2023-04-18T19:29:14.004Z,72.96
2023-04-18T19:31:43.373Z,72.49
2023-04-18T19:34:10.836Z,72.71
2023-04-18T19:36:38.214Z,73.20
2023-04-18T19:39:04.995Z,73.12
2023-04-18T19:41:31.676Z,73.23
2023-04-18T19:43:58.466Z,73.60
2023-04-18T19:46:24.991Z,72.92
2023-04-18T19:48:51.534Z,74.13
2023-04-18T19:51:18.100Z,73.28
2023-04-18T19:53:44.666Z,73.19
2023-04-18T19:56:13.532Z,73.61
2023-04-18T19:58:45.008Z,73.88
2023-04-18T20:01:16.202Z,73.61
2023-04-18T20:03:42.929Z,73.39
2023-04-18T20:06:09.898Z,73.95
2023-04-18T20:08:38.098Z,73.89
2023-04-18T20:11:07.778Z,73.92
2023-04-18T20:13:36.269Z,73.58
2023-04-18T20:16:07.460Z,74.23
2023-04-18T20:18:35.876Z,74.55
2023-04-18T20:21:02.973Z,74.19
2023-04-18T20:23:29.456Z,74.43
2023-04-18T20:25:55.910Z,74.72
2023-04-18T20:28:22.780Z,74.96
2023-04-18T20:30:49.553Z,75.96
2023-04-18T20:33:16.328Z,75.38
2023-04-18T20:35:44.325Z,76.15
2023-04-18T20:38:12.235Z,76.15
2023-04-18T20:40:39.612Z,76.27
2023-04-18T20:43:07.984Z,76.55
2023-04-18T20:45:37.330Z,76.33
2023-04-18T20:48:04.723Z,76.46
2023-04-18T20:50:31.456Z,76.77
2023-04-18T20:53:00.285Z,76.09
2023-04-18T20:55:27.202Z,76.54
2023-04-18T20:57:53.996Z,76.63
2023-04-18T21:00:20.679Z,76.10
2023-04-18T21:02:47.455Z,75.47
2023-04-18T21:05:14.286Z,74.43
2023-04-18T21:07:41.007Z,73.05
2023-04-18T21:10:07.993Z,73.15
2023-04-18T21:12:37.883Z,72.93
2023-04-18T21:15:05.432Z,72.49
2023-04-18T21:17:32.357Z,71.94
2023-04-18T21:23:25.197Z,71.58
2023-04-18T21:25:51.837Z,70.86
2023-04-18T21:28:19.040Z,70.07
2023-04-18T21:30:46.734Z,69.91
2023-04-18T21:33:13.563Z,69.45
2023-04-18T21:35:40.355Z,69.15
2023-04-18T21:38:07.023Z,68.52
2023-04-18T21:40:33.697Z,68.13
2023-04-18T21:43:00.398Z,68.09
2023-04-18T21:45:27.159Z,67.65
2023-04-18T21:47:53.868Z,66.49
2023-04-18T21:50:20.730Z,65.88
2023-04-18T21:52:47.477Z,66.05
2023-04-18T21:55:14.232Z,65.35
2023-04-18T21:57:41.062Z,65.17
2023-04-18T22:00:10.523Z,64.95
2023-04-18T22:02:39.258Z,63.51
2023-04-18T22:05:08.703Z,63.54
2023-04-18T22:07:43.278Z,63.63
2023-04-18T22:10:13.291Z,63.92
2023-04-18T22:12:39.971Z,62.87
2023-04-18T22:15:07.155Z,62.88
2023-04-18T22:17:34.918Z,63.42
2023-04-18T22:20:04.552Z,63.34
2023-04-18T22:22:31.474Z,63.21
2023-04-18T22:24:58.211Z,63.35
2023-04-18T22:27:24.964Z,63.41
2023-04-18T22:29:51.630Z,62.92
2023-04-18T22:32:18.318Z,63.69
2023-04-18T22:34:45.004Z,63.70
2023-04-18T22:37:11.688Z,64.38
2023-04-18T22:39:38.382Z,64.93
2023-04-18T22:42:05.042Z,65.64
2023-04-18T22:44:31.736Z,66.28
2023-04-18T22:46:58.399Z,66.41
2023-04-18T22:49:25.211Z,66.59
2023-04-18T22:51:54.302Z,67.10
2023-04-18T22:54:21.143Z,67.44
2023-04-18T22:56:50.812Z,68.33
2023-04-18T22:59:17.754Z,68.35
2023-04-18T23:01:44.553Z,69.28
2023-04-18T23:04:11.536Z,69.53
2023-04-18T23:06:38.748Z,69.83
2023-04-18T23:09:06.940Z,70.73
2023-04-18T23:11:33.621Z,71.20
2023-04-18T23:14:00.505Z,72.38
2023-04-18T23:16:28.061Z,73.18
2023-04-18T23:18:54.849Z,73.02
2023-04-18T23:21:21.569Z,72.96
2023-04-18T23:23:48.269Z,72.70
2023-04-18T23:26:15.634Z,73.47
2023-04-18T23:28:42.426Z,72.91
2023-04-18T23:31:09.227Z,72.84
2023-04-18T23:33:36.417Z,72.72
2023-04-18T23:36:03.303Z,72.76
2023-04-18T23:38:30.621Z,72.40
2023-04-18T23:40:57.325Z,72.20
2023-04-18T23:43:24.054Z,72.05
2023-04-18T23:45:50.734Z,71.96
2023-04-18T23:48:17.391Z,72.00
2023-04-18T23:50:48.642Z,71.69
2023-04-18T23:53:19.624Z,71.56
2023-04-18T23:55:48.384Z,71.34
2023-04-18T23:58:16.870Z,70.52
